Time;durP1;ratioP1;P1;durP2;ratioP2;P2;SDS_P1;SDS_P2;PMS_P1;PMS_P2;Temp;Humidity;BMP_temperature;BMP_pressure;BME280_temperature;BME280_humidity;BME280_pressure;Samples;Min_cycle;Max_cycle;Signal;HPM_P1;HPM_P2
2023/03/07 00:00:43;;;;;;;32.85;13.70;;;;;;;-5.16;100.00;99484.59;6207789;23;20509;-71
2023/03/07 00:03:11;;;;;;;26.58;14.15;;;;;;;-5.09;100.00;99479.84;6208530;23;20027;-70
2023/03/07 00:05:38;;;;;;;33.28;14.55;;;;;;;-5.10;100.00;99475.53;6208533;23;20025;-71
2023/03/07 00:08:04;;;;;;;32.28;13.85;;;;;;;-5.09;100.00;99472.00;6208693;23;20020;-70
2023/03/07 00:10:31;;;;;;;33.05;13.88;;;;;;;-5.16;100.00;99468.91;6209118;23;20024;-71
2023/03/07 00:12:58;;;;;;;41.45;14.30;;;;;;;-5.14;100.00;99464.44;6208891;23;20017;-70
2023/03/07 00:15:24;;;;;;;29.67;13.40;;;;;;;-5.10;100.00;99459.84;6208717;23;20441;-70
2023/03/07 00:17:51;;;;;;;32.28;14.20;;;;;;;-5.08;100.00;99455.34;6198273;23;20352;-71
2023/03/07 00:20:18;;;;;;;29.90;14.70;;;;;;;-5.08;100.00;99455.34;6207486;23;20395;-71
2023/03/07 00:22:45;;;;;;;37.78;15.18;;;;;;;-5.12;100.00;99441.63;6209848;23;20032;-70
2023/03/07 00:25:13;;;;;;;33.33;14.23;;;;;;;-5.18;100.00;99446.38;6209145;23;20094;-71
2023/03/07 00:27:40;;;;;;;44.00;16.40;;;;;;;-5.30;100.00;99443.56;6209878;23;20016;-70
2023/03/07 00:30:11;;;;;;;32.30;16.02;;;;;;;-5.29;100.00;99431.34;6209824;23;20052;-70
2023/03/07 00:32:37;;;;;;;29.20;13.83;;;;;;;-5.24;100.00;99440.59;6209832;23;20111;-71
2023/03/07 00:35:04;;;;;;;34.63;17.90;;;;;;;-5.14;100.00;99426.94;6209257;23;20059;-71
2023/03/07 00:37:31;;;;;;;38.28;18.15;;;;;;;-5.21;100.00;99424.72;6208992;23;20476;-70
2023/03/07 00:39:57;;;;;;;38.60;18.27;;;;;;;-5.18;100.00;99418.44;6209181;23;20054;-71
2023/03/07 00:42:24;;;;;;;38.85;18.27;;;;;;;-5.10;100.00;99415.41;6207768;23;20020;-70
2023/03/07 00:44:50;;;;;;;37.78;18.10;;;;;;;-5.24;100.00;99405.78;6209563;23;20424;-70
2023/03/07 00:47:17;;;;;;;42.20;20.48;;;;;;;-5.33;100.00;99399.31;6208991;23;20095;-71
2023/03/07 00:49:43;;;;;;;49.67;19.33;;;;;;;-5.20;100.00;99395.03;6208530;23;20135;-70
2023/03/07 00:52:09;;;;;;;46.95;20.27;;;;;;;-5.21;100.00;99392.53;6209083;23;20017;-70
2023/03/07 00:54:36;;;;;;;69.10;19.52;;;;;;;-5.29;100.00;99385.13;6206257;23;20030;-70
2023/03/07 00:57:03;;;;;;;60.55;20.15;;;;;;;-5.42;100.00;99373.75;6208975;23;20322;-69
2023/03/07 00:59:29;;;;;;;65.03;20.65;;;;;;;-5.54;100.00;99374.44;6208653;23;20091;-69
2023/03/07 01:01:55;;;;;;;65.82;20.23;;;;;;;-5.44;100.00;99373.81;6208603;23;20051;-70
2023/03/07 01:04:22;;;;;;;41.33;20.60;;;;;;;-5.39;100.00;99365.69;6208988;23;20029;-71
2023/03/07 01:06:49;;;;;;;156.40;23.70;;;;;;;-5.64;100.00;99362.88;6208735;23;20023;-70
2023/03/07 01:09:16;;;;;;;74.10;21.80;;;;;;;-5.59;100.00;99363.41;6209324;23;20028;-70
2023/03/07 01:11:42;;;;;;;66.00;20.42;;;;;;;-5.64;100.00;99355.88;6203820;23;20043;-71
2023/03/07 01:14:09;;;;;;;58.35;20.10;;;;;;;-5.55;100.00;99346.66;6210142;23;20021;-70
2023/03/07 01:16:37;;;;;;;60.20;19.02;;;;;;;-5.52;100.00;99338.63;6209477;23;20029;-70
2023/03/07 01:19:07;;;;;;;97.00;22.88;;;;;;;-5.67;100.00;99338.59;6208594;23;20017;-70
2023/03/07 01:21:37;;;;;;;92.10;21.90;;;;;;;-5.59;100.00;99334.69;6209479;23;20100;-70
2023/03/07 01:24:05;;;;;;;118.82;23.70;;;;;;;-5.61;100.00;99324.34;6209417;23;20092;-70
2023/03/07 01:26:32;;;;;;;103.10;24.38;;;;;;;-5.54;100.00;99323.03;6208769;23;20035;-70
2023/03/07 01:29:01;;;;;;;81.30;24.17;;;;;;;-5.61;100.00;99319.09;6180403;23;20081;-70
2023/03/07 01:31:29;;;;;;;82.30;24.17;;;;;;;-5.62;100.00;99314.00;6196343;23;20048;-70
2023/03/07 01:33:55;;;;;;;127.35;24.58;;;;;;;-5.58;100.00;99311.09;6210582;23;20025;-70
2023/03/07 01:36:28;;;;;;;79.68;25.33;;;;;;;-5.56;100.00;99310.97;6209472;23;20021;-71
2023/03/07 01:39:05;;;;;;;100.30;25.52;;;;;;;-5.58;100.00;99289.34;6209600;23;20012;-70
2023/03/07 01:41:36;;;;;;;93.72;25.90;;;;;;;-5.64;100.00;99281.88;6207882;23;20067;-71
2023/03/07 01:44:13;;;;;;;131.93;27.17;;;;;;;-5.70;100.00;99276.09;6209319;23;20020;-69
2023/03/07 01:46:44;;;;;;;77.80;26.08;;;;;;;-5.59;100.00;99271.97;6208068;23;20418;-71
2023/03/07 01:49:19;;;;;;;122.22;28.77;;;;;;;-5.54;100.00;99265.53;6208516;23;20067;-71
2023/03/07 01:51:51;;;;;;;121.72;28.55;;;;;;;-5.60;100.00;99252.84;6208698;23;20059;-70
2023/03/07 01:54:19;;;;;;;;;;;;;;;-5.48;100.00;99248.66;6183583;23;20099;-70
2023/03/07 01:56:46;;;;;;;122.78;27.60;;;;;;;-5.52;100.00;99249.78;6207886;23;19920;-70
2023/03/07 01:59:18;;;;;;;92.95;28.73;;;;;;;-5.49;100.00;99242.59;6209091;23;20020;-71
2023/03/07 02:01:44;;;;;;;138.52;30.38;;;;;;;-5.49;100.00;99239.13;6208339;23;20052;-70
2023/03/07 02:04:16;;;;;;;145.73;31.88;;;;;;;-5.45;100.00;99236.25;6208387;23;20349;-70
2023/03/07 02:07:32;;;;;;;102.97;32.10;;;;;;;-5.38;100.00;99226.25;6206691;23;20024;-70
2023/03/07 02:10:02;;;;;;;106.80;33.05;;;;;;;-5.33;100.00;99215.50;6211289;23;20429;-71
2023/03/07 02:12:29;;;;;;;96.40;33.10;;;;;;;-5.35;100.00;99212.13;6211822;23;20448;-70
2023/03/07 02:14:55;;;;;;;92.22;34.90;;;;;;;-5.23;100.00;99212.22;6210595;23;20025;-70
2023/03/07 02:17:23;;;;;;;104.13;36.58;;;;;;;-5.18;100.00;99200.63;6211407;23;20028;-71
2023/03/07 02:20:17;;;;;;;100.30;38.83;;;;;;;-5.16;100.00;99196.13;6183324;23;20017;-72
2023/03/07 02:22:44;;;;;;;105.68;35.97;;;;;;;-5.10;100.00;99191.34;6155835;23;20027;-71
2023/03/07 02:25:35;;;;;;;105.00;37.15;;;;;;;-5.05;100.00;99183.22;6210807;23;20103;-70
2023/03/07 02:28:03;;;;;;;72.72;28.45;;;;;;;-4.95;100.00;99179.06;6207693;23;20055;-69
2023/03/07 02:30:29;;;;;;;100.65;38.38;;;;;;;-4.94;100.00;99172.06;6210935;23;20024;-70
2023/03/07 02:32:56;;;;;;;100.93;41.05;;;;;;;-4.93;100.00;99163.28;6211691;23;20107;-70
2023/03/07 02:35:24;;;;;;;111.68;41.53;;;;;;;-4.86;100.00;99161.94;6210567;23;20031;-70
2023/03/07 02:38:00;;;;;;;110.85;41.63;;;;;;;-4.85;100.00;99161.84;6204152;23;20016;-70
2023/03/07 02:40:29;;;;;;;106.82;40.50;;;;;;;-4.87;100.00;99145.38;6209715;23;20055;-71
2023/03/07 02:43:00;;;;;;;110.68;42.05;;;;;;;-4.81;100.00;99144.16;6211041;23;20389;-71
2023/03/07 02:45:27;;;;;;;109.05;41.42;;;;;;;-4.74;100.00;99133.19;6184348;23;20099;-71
2023/03/07 02:47:54;;;;;;;104.18;41.38;;;;;;;-4.76;100.00;99129.84;6209894;23;20450;-71
2023/03/07 02:50:20;;;;;;;113.28;41.85;;;;;;;-4.76;100.00;99123.78;6209043;23;20517;-71
2023/03/07 02:52:48;;;;;;;112.88;42.88;;;;;;;-4.68;100.00;99124.09;6210099;23;20418;-71
2023/03/07 02:55:15;;;;;;;112.97;42.65;;;;;;;-4.65;100.00;99115.22;6212071;23;20024;-71
2023/03/07 02:57:41;;;;;;;118.63;42.05;;;;;;;-4.61;100.00;99114.06;6209816;23;20044;-71
2023/03/07 03:00:10;;;;;;;116.68;42.53;;;;;;;-4.57;100.00;99105.06;6209506;23;20373;-70
2023/03/07 03:02:36;;;;;;;109.68;41.75;;;;;;;-4.60;100.00;99100.03;6211223;23;20047;-70
2023/03/07 04:16:52;;;;;;;85.25;36.15;;;;;;;-3.92;100.00;98934.63;6174759;22;20359;-70
2023/03/07 04:19:18;;;;;;;71.15;32.00;;;;;;;-3.87;100.00;98926.44;6210335;23;20416;-70
2023/03/07 04:21:47;;;;;;;76.00;31.83;;;;;;;-3.83;100.00;98917.38;6209397;23;20024;-71
2023/03/07 04:24:13;;;;;;;73.95;32.17;;;;;;;-3.80;100.00;98911.94;6208905;23;20031;-71
2023/03/07 04:26:40;;;;;;;72.93;31.20;;;;;;;-3.77;100.00;98912.53;6209020;23;20516;-70
2023/03/07 04:29:06;;;;;;;75.95;32.40;;;;;;;-3.73;100.00;98901.84;6209895;23;20021;-71
2023/03/07 04:31:33;;;;;;;67.65;30.35;;;;;;;-3.70;100.00;98904.22;6210549;23;20016;-70
2023/03/07 04:33:59;;;;;;;68.03;29.13;;;;;;;-3.69;100.00;98909.34;6209509;23;20092;-70
2023/03/07 04:36:26;;;;;;;70.03;30.60;;;;;;;-3.68;100.00;98899.72;6209495;23;20302;-71
2023/03/07 05:13:58;;;;;;;75.53;31.55;;;;;;;-4.12;100.00;98839.19;6200104;22;20048;-69
2023/03/07 05:16:24;;;;;;;81.57;34.10;;;;;;;-4.11;100.00;98850.47;6239778;22;20004;-67
2023/03/07 05:18:51;;;;;;;79.40;33.60;;;;;;;-4.11;100.00;98838.22;6239062;22;20083;-68
2023/03/07 05:21:17;;;;;;;73.82;32.88;;;;;;;-4.11;100.00;98837.38;6238406;22;20001;-67
2023/03/07 05:23:44;;;;;;;87.05;35.03;;;;;;;-4.11;100.00;98834.78;6238536;22;20035;-68
2023/03/07 05:26:10;;;;;;;85.97;37.78;;;;;;;-4.07;100.00;98842.31;6238640;22;20031;-69
2023/03/07 05:28:37;;;;;;;87.28;35.47;;;;;;;-4.04;100.00;98831.56;6237764;22;20024;-68
2023/03/07 05:31:03;;;;;;;86.05;37.05;;;;;;;-4.01;100.00;98822.66;6238434;22;20007;-69
2023/03/07 05:33:30;;;;;;;86.47;36.85;;;;;;;-4.03;100.00;98835.06;6238750;22;20012;-68
2023/03/07 05:36:00;;;;;;;96.25;36.88;;;;;;;-4.05;100.00;98831.72;6237671;22;20008;-68
2023/03/07 05:38:27;;;;;;;90.20;37.28;;;;;;;-4.04;100.00;98820.28;6229515;22;20031;-66
2023/03/07 05:40:53;;;;;;;92.60;38.35;;;;;;;-3.99;100.00;98819.94;6238815;22;20004;-68
2023/03/07 05:43:20;;;;;;;91.47;36.30;;;;;;;-4.01;100.00;98814.81;6232923;22;20016;-67
2023/03/07 05:45:47;;;;;;;93.78;37.60;;;;;;;-3.97;100.00;98818.03;6240453;22;20020;-68
2023/03/07 05:48:13;;;;;;;97.88;39.10;;;;;;;-3.93;100.00;98825.56;6240338;22;20057;-69
2023/03/07 05:50:40;;;;;;;91.20;38.00;;;;;;;-3.92;100.00;98835.09;6238881;22;20003;-68
2023/03/07 05:53:07;;;;;;;93.90;39.13;;;;;;;-3.88;100.00;98823.44;6240794;22;20006;-69
2023/03/07 05:55:34;;;;;;;92.70;37.85;;;;;;;-3.89;100.00;98816.53;6240861;22;20052;-67
2023/03/07 05:58:00;;;;;;;90.22;39.33;;;;;;;-3.90;100.00;98817.44;6240830;22;20028;-66
2023/03/07 06:00:27;;;;;;;85.63;34.78;;;;;;;-3.90;100.00;98817.44;6238766;22;20013;-68
2023/03/07 06:02:53;;;;;;;92.30;38.30;;;;;;;-3.86;100.00;98818.06;6228373;22;20052;-67
2023/03/07 06:05:20;;;;;;;96.97;39.08;;;;;;;-3.85;100.00;98820.59;6240406;22;20004;-67
2023/03/07 06:07:49;;;;;;;90.85;36.05;;;;;;;-3.85;100.00;98814.50;6239265;22;20020;-67
2023/03/07 06:10:15;;;;;;;86.35;36.75;;;;;;;-3.81;100.00;98811.53;6240192;22;20005;-68
2023/03/07 06:12:42;;;;;;;89.93;38.08;;;;;;;-3.77;100.00;98820.00;6239240;22;20020;-68
2023/03/07 06:15:09;;;;;;;83.18;36.65;;;;;;;-3.77;100.00;98826.06;6239780;22;20080;-67
2023/03/07 06:17:35;;;;;;;82.47;35.40;;;;;;;-3.73;100.00;98808.31;6240357;22;20024;-66
2023/03/07 06:20:03;;;;;;;85.28;35.88;;;;;;;-3.72;100.00;98809.16;6240944;22;20035;-67
2023/03/07 06:22:30;;;;;;;87.63;36.38;;;;;;;-3.67;100.00;98814.91;6239885;22;20055;-68
2023/03/07 06:24:57;;;;;;;84.85;37.33;;;;;;;-3.66;100.00;98814.78;6228723;22;20068;-70
2023/03/07 06:27:24;;;;;;;82.50;36.63;;;;;;;-3.65;100.00;98807.78;6239946;22;20035;-68
2023/03/07 06:29:50;;;;;;;82.32;35.30;;;;;;;-3.62;100.00;98807.50;6229132;22;20052;-72
2023/03/07 06:32:17;;;;;;;85.10;35.42;;;;;;;-3.59;100.00;98809.91;6210832;23;20409;-72
2023/03/07 06:34:43;;;;;;;89.90;36.25;;;;;;;-3.58;100.00;98801.94;6210643;23;20032;-71
2023/03/07 06:37:10;;;;;;;83.22;36.88;;;;;;;-3.59;100.00;98802.88;6211647;23;20107;-72
2023/03/07 06:39:36;;;;;;;80.78;36.63;;;;;;;-3.53;100.00;98801.56;6211797;23;20020;-71
2023/03/07 06:42:03;;;;;;;84.85;36.53;;;;;;;-3.55;100.00;98804.31;6211271;23;20449;-72
2023/03/07 06:44:29;;;;;;;83.38;35.03;;;;;;;-3.53;100.00;98807.66;6211117;23;20023;-72
2023/03/07 06:46:55;;;;;;;86.07;36.88;;;;;;;-3.50;100.00;98803.13;6204378;23;20020;-72
2023/03/07 06:49:22;;;;;;;79.85;34.55;;;;;;;-3.50;100.00;98822.31;6210401;23;20453;-72
2023/03/07 06:51:48;;;;;;;77.18;34.47;;;;;;;-3.49;100.00;98812.66;6209498;23;20028;-72
2023/03/07 06:54:15;;;;;;;82.78;34.65;;;;;;;-3.43;100.00;98817.44;6210441;23;20024;-72
2023/03/07 06:56:41;;;;;;;76.38;34.60;;;;;;;-3.44;100.00;98824.47;6210573;23;20013;-72
2023/03/07 06:59:10;;;;;;;75.22;32.03;;;;;;;-3.41;100.00;98829.47;6184288;23;20125;-72
2023/03/07 07:01:37;;;;;;;83.57;35.80;;;;;;;-3.35;100.00;98829.00;6210548;23;20483;-72
2023/03/07 07:04:04;;;;;;;72.38;32.35;;;;;;;-3.29;100.00;98825.06;6211361;23;20020;-72
2023/03/07 07:06:30;;;;;;;71.90;32.25;;;;;;;-3.34;100.00;98830.69;6210044;23;20025;-72
2023/03/07 07:08:58;;;;;;;73.40;32.80;;;;;;;-3.32;100.00;98823.50;6210088;23;20025;-72
2023/03/07 07:11:25;;;;;;;74.57;32.92;;;;;;;-3.28;100.00;98809.22;6209682;23;20048;-72
2023/03/07 07:13:51;;;;;;;64.03;29.58;;;;;;;-3.24;100.00;98817.66;6210819;23;20025;-72
2023/03/07 07:16:18;;;;;;;68.88;31.70;;;;;;;-3.25;100.00;98808.13;6209155;23;20035;-72
2023/03/07 07:18:45;;;;;;;70.05;31.73;;;;;;;-3.23;100.00;98815.91;6211340;23;20016;-72
2023/03/07 07:21:11;;;;;;;69.90;31.67;;;;;;;-3.14;100.00;98799.44;6210889;23;20377;-72
2023/03/07 07:23:38;;;;;;;66.07;30.30;;;;;;;-3.15;100.00;98808.25;6211592;23;20079;-72
2023/03/07 07:26:05;;;;;;;65.35;30.30;;;;;;;-3.11;100.00;98804.44;6210132;23;20027;-72
2023/03/07 07:28:32;;;;;;;64.68;28.23;;;;;;;-3.11;100.00;98805.28;6210273;23;20035;-72
2023/03/07 07:30:58;;;;;;;64.70;29.13;;;;;;;-3.07;100.00;98800.63;6210644;23;20096;-72
2023/03/07 07:33:25;;;;;;;303.02;72.82;;;;;;;-3.05;100.00;98802.19;6210561;23;20027;-72
2023/03/07 07:35:51;;;;;;;107.18;31.45;;;;;;;-3.04;100.00;98803.00;6210178;23;20035;-71
2023/03/07 07:38:18;;;;;;;77.25;29.20;;;;;;;-3.01;100.00;98800.16;6210625;23;20024;-73
2023/03/07 07:40:44;;;;;;;115.30;31.67;;;;;;;-2.89;100.00;98798.31;6210408;23;20020;-73
2023/03/07 07:43:14;;;;;;;61.95;27.10;;;;;;;-2.85;100.00;98792.75;6185411;23;20028;-72
2023/03/07 07:45:41;;;;;;;59.20;28.73;;;;;;;-2.87;100.00;98799.88;6209741;23;20384;-73
2023/03/07 07:48:07;;;;;;;60.25;27.67;;;;;;;-2.89;100.00;98791.31;6209931;23;20020;-72
2023/03/07 07:50:34;;;;;;;60.22;27.00;;;;;;;-2.83;100.00;98793.44;6210468;23;20044;-73
2023/03/07 07:53:01;;;;;;;55.15;24.88;;;;;;;-2.85;100.00;98790.13;6210371;23;20516;-72
2023/03/07 07:55:27;;;;;;;53.55;24.40;;;;;;;-2.84;100.00;98794.41;6210893;23;20048;-72
2023/03/07 07:57:54;;;;;;;55.15;27.05;;;;;;;-2.84;100.00;98790.94;6210054;23;20016;-71
2023/03/07 08:00:20;;;;;;;57.35;26.38;;;;;;;-2.83;100.00;98797.84;6209006;23;20025;-73
2023/03/07 08:02:50;;;;;;;52.20;25.35;;;;;;;-2.83;100.00;98798.69;6210383;23;20091;-73
2023/03/07 08:05:20;;;;;;;52.70;26.52;;;;;;;-2.83;100.00;98788.19;6209949;23;20298;-73
2023/03/07 08:07:47;;;;;;;56.65;25.45;;;;;;;-2.81;100.00;98788.06;6209716;23;20353;-72
2023/03/07 08:10:15;;;;;;;49.80;24.15;;;;;;;-2.68;100.00;98794.00;6209785;23;20092;-72
2023/03/07 08:12:48;;;;;;;50.50;24.27;;;;;;;-2.69;100.00;98784.44;6211318;23;20040;-73
2023/03/07 08:15:15;;;;;;;53.20;23.67;;;;;;;-2.70;100.00;98787.22;6209911;23;20405;-72
2023/03/07 08:17:43;;;;;;;46.97;23.75;;;;;;;-2.70;100.00;98788.03;6211336;23;20021;-72
2023/03/07 08:20:10;;;;;;;46.35;24.10;;;;;;;-2.65;100.00;98790.28;6210335;23;20025;-71
2023/03/07 08:22:37;;;;;;;52.35;24.48;;;;;;;-2.62;100.00;98801.38;6210213;23;20433;-72
2023/03/07 08:25:05;;;;;;;52.38;25.52;;;;;;;-2.64;100.00;98789.34;6210727;23;20032;-72
2023/03/07 08:27:32;;;;;;;47.47;23.40;;;;;;;-2.60;100.00;98783.72;6210209;23;20218;-72
2023/03/07 08:30:00;;;;;;;49.70;23.13;;;;;;;-2.60;100.00;98772.41;6209461;23;20153;-72
2023/03/07 08:32:27;;;;;;;49.28;23.45;;;;;;;-2.48;100.00;98781.88;6199702;23;20052;-71
2023/03/07 08:34:53;;;;;;;43.88;23.23;;;;;;;-2.34;100.00;98779.00;6209997;23;20021;-71
2023/03/07 08:37:20;;;;;;;44.72;23.27;;;;;;;-2.23;100.00;98782.53;6209702;23;20438;-71
2023/03/07 08:39:46;;;;;;;48.58;23.60;;;;;;;-2.18;100.00;98780.34;6210740;23;20357;-70
2023/03/07 08:42:13;;;;;;;41.67;21.92;;;;;;;-2.14;100.00;98777.31;6209967;23;20091;-71
2023/03/07 08:44:39;;;;;;;43.17;22.05;;;;;;;-2.17;100.00;98784.63;6209762;23;20017;-71
2023/03/07 08:47:06;;;;;;;45.05;21.67;;;;;;;-2.10;100.00;98786.66;6209156;23;20017;-70
2023/03/07 08:49:32;;;;;;;40.42;21.63;;;;;;;-2.02;100.00;98785.19;6208988;23;20513;-70
2023/03/07 08:51:59;;;;;;;51.97;23.48;;;;;;;-1.98;100.00;98782.16;6209525;23;20027;-70
2023/03/07 08:54:27;;;;;;;38.45;20.05;;;;;;;-1.91;100.00;98782.47;6201933;23;20024;-72
2023/03/07 08:56:53;;;;;;;40.63;20.73;;;;;;;-1.83;100.00;98781.84;6210693;23;20475;-72
2023/03/07 08:59:20;;;;;;;37.20;19.92;;;;;;;-1.73;100.00;98785.34;6209535;23;20397;-71
2023/03/07 09:01:46;;;;;;;31.85;17.83;;;;;;;-1.73;100.00;98777.47;6210671;23;20479;-71
2023/03/07 09:04:13;;;;;;;33.22;18.33;;;;;;;-1.71;100.00;98786.91;6208252;23;20020;-71
2023/03/07 09:06:40;;;;;;;36.67;19.05;;;;;;;-1.71;100.00;98784.28;6208562;23;20341;-71
2023/03/07 09:09:10;;;;;;;36.05;19.13;;;;;;;-1.67;100.00;98784.84;6170786;23;20017;-70
2023/03/07 09:11:42;;;;;;;32.10;19.02;;;;;;;-1.70;100.00;98775.41;6179182;23;20110;-70
2023/03/07 09:14:09;;;;;;;31.85;17.90;;;;;;;-1.72;100.00;98784.38;6194045;23;20060;-70
2023/03/07 09:16:36;;;;;;;32.33;17.55;;;;;;;-1.61;100.00;98776.44;6208443;23;20025;-70
2023/03/07 09:19:06;;;;;;;30.52;16.75;;;;;;;-1.50;100.00;98778.16;6172821;23;20021;-70
2023/03/07 09:21:39;;;;;;;29.42;16.10;;;;;;;-1.50;100.00;98771.09;6199897;23;20029;-70
2023/03/07 09:24:16;;;;;;;30.95;16.33;;;;;;;-1.44;100.00;98780.25;6182577;23;20025;-70
2023/03/07 09:26:43;;;;;;;27.55;16.52;;;;;;;-1.32;100.00;98778.38;6195629;23;20100;-70
2023/03/07 09:29:09;;;;;;;28.58;16.45;;;;;;;-1.26;100.00;98777.84;6207145;23;20095;-70
2023/03/07 09:31:36;;;;;;;31.25;16.77;;;;;;;-1.21;100.00;98780.91;6209045;23;20016;-70
2023/03/07 09:34:04;;;;;;;26.00;15.27;;;;;;;-0.99;100.00;98782.50;6210292;23;20398;-70
2023/03/07 09:36:30;;;;;;;27.35;14.77;;;;;;;-0.79;100.00;98775.50;6209704;23;20040;-70
2023/03/07 09:38:57;;;;;;;27.45;14.02;;;;;;;-0.63;100.00;98778.44;6209844;23;20016;-70
2023/03/07 09:41:48;;;;;;;23.27;14.20;;;;;;;-0.56;100.00;98778.72;6192635;23;20066;-70
2023/03/07 09:44:31;;;;;;;25.88;14.25;;;;;;;-0.55;100.00;98778.56;6190305;23;20116;-70
2023/03/07 09:47:22;;;;;;;21.40;12.48;;;;;;;-0.59;100.00;98786.91;6208662;23;20048;-70
2023/03/07 09:49:50;;;;;;;73.20;17.67;;;;;;;-0.61;100.00;98778.28;6208386;23;20020;-69
2023/03/07 09:52:20;;;;;;;17.45;11.80;;;;;;;-0.69;100.00;98784.25;6209116;23;20647;-70
2023/03/07 09:55:17;;;;;;;22.52;12.43;;;;;;;-0.64;100.00;98774.16;6209231;23;20467;-70
2023/03/07 09:57:49;;;;;;;17.98;11.23;;;;;;;-0.58;100.00;98772.75;6208669;23;20032;-70
2023/03/07 10:00:36;;;;;;;18.17;11.43;;;;;;;-0.56;100.00;98776.91;6210943;23;20040;-70
2023/03/07 10:03:25;;;;;;;16.83;11.00;;;;;;;-0.65;100.00;98775.09;6208846;23;20099;-70
2023/03/07 10:05:56;;;;;;;17.95;11.55;;;;;;;-0.68;100.00;98772.72;6209999;23;20030;-71
2023/03/07 10:08:29;;;;;;;21.13;11.25;;;;;;;-0.79;100.00;98767.59;6209497;23;20052;-70
2023/03/07 10:11:07;;;;;;;21.58;12.13;;;;;;;-0.83;100.00;98767.03;6207706;23;20035;-71
2023/03/07 10:14:16;;;;;;;27.58;12.50;;;;;;;-0.69;100.00;98776.34;6209815;23;20345;-71
2023/03/07 10:17:06;;;;;;;67.22;16.35;;;;;;;-0.71;100.00;98778.25;6168677;23;20029;-71
2023/03/07 10:19:47;;;;;;;53.53;13.38;;;;;;;-0.60;100.00;98770.28;6209561;23;20395;-71
2023/03/07 10:22:32;;;;;;;31.52;10.48;;;;;;;-0.58;100.00;98770.94;6209290;23;20028;-71
2023/03/07 10:25:24;;;;;;;21.25;10.13;;;;;;;-0.54;100.00;98779.41;6208660;23;20326;-70
2023/03/07 10:27:58;;;;;;;15.48;9.27;;;;;;;-0.38;100.00;98784.16;6208666;23;20020;-71
2023/03/07 10:30:30;;;;;;;17.73;10.07;;;;;;;-0.57;100.00;98783.16;6211070;23;20103;-72
2023/03/07 10:32:58;;;;;;;16.58;9.82;;;;;;;-0.65;100.00;98783.00;6211663;23;20059;-71
2023/03/07 10:35:46;;;;;;;15.18;9.27;;;;;;;-0.59;100.00;98779.00;6211147;23;20035;-71
2023/03/07 10:38:26;;;;;;;19.98;9.73;;;;;;;-0.54;100.00;98782.03;6210253;23;20087;-72
2023/03/07 10:41:14;;;;;;;19.27;9.82;;;;;;;-0.56;100.00;98779.56;6210322;23;20020;-72
2023/03/07 10:43:44;;;;;;;14.77;8.18;;;;;;;-0.64;100.00;98779.41;6210578;23;20052;-71
2023/03/07 10:46:21;;;;;;;14.77;8.75;;;;;;;-0.58;100.00;98776.22;6197914;23;20020;-72
2023/03/07 10:49:06;;;;;;;10.68;6.38;;;;;;;-0.73;100.00;98777.59;6176704;23;20021;-72
2023/03/07 10:51:54;;;;;;;13.00;8.40;;;;;;;-0.72;100.00;98773.97;6209397;23;20417;-71
2023/03/07 10:54:26;;;;;;;15.82;9.50;;;;;;;-0.54;100.00;98772.34;6210699;23;20028;-72
2023/03/07 10:57:16;;;;;;;15.75;9.52;;;;;;;-0.57;100.00;98766.50;6210858;23;20434;-72
2023/03/07 10:59:47;;;;;;;12.40;6.97;;;;;;;-0.79;100.00;98768.41;6210189;23;20020;-71
2023/03/07 11:02:36;;;;;;;14.85;8.52;;;;;;;-0.68;100.00;98775.38;6179141;23;20100;-71
2023/03/07 11:05:29;;;;;;;13.20;7.03;;;;;;;-0.51;100.00;98758.88;6201098;23;20031;-71
2023/03/07 11:07:57;;;;;;;14.52;6.93;;;;;;;-0.56;100.00;98758.47;6210567;23;20362;-72
2023/03/07 11:10:38;;;;;;;9.70;5.88;;;;;;;-0.73;100.00;98752.09;6211614;23;20099;-72
2023/03/07 11:13:17;;;;;;;10.13;5.13;;;;;;;-0.76;100.00;98752.34;6211022;23;20075;-72
2023/03/07 11:15:44;;;;;;;9.43;4.60;;;;;;;-0.71;100.00;98744.91;6211044;23;20477;-72
2023/03/07 11:18:41;;;;;;;6.70;4.32;;;;;;;-0.72;100.00;98742.38;6211181;23;20096;-72
2023/03/07 11:21:28;;;;;;;9.05;4.68;;;;;;;-0.77;100.00;98741.97;6195129;23;20331;-72
2023/03/07 11:24:15;;;;;;;6.95;4.30;;;;;;;-0.90;100.00;98732.50;6210259;23;20480;-72
2023/03/07 11:26:42;;;;;;;9.00;4.60;;;;;;;-0.94;100.00;98739.03;6210745;23;20031;-71
2023/03/07 11:29:11;;;;;;;9.65;4.05;;;;;;;-0.89;100.00;98733.34;6210219;23;20016;-71
2023/03/07 11:31:56;;;;;;;10.40;3.95;;;;;;;-0.91;100.00;98736.13;6210031;23;20442;-71
2023/03/07 11:34:27;;;;;;;5.10;3.15;;;;;;;-0.74;100.00;98728.53;6209416;23;20025;-71
2023/03/07 11:36:59;;;;;;;8.32;4.07;;;;;;;-0.72;100.00;98726.59;6210602;23;20028;-71
2023/03/07 11:39:54;;;;;;;7.93;4.13;;;;;;;-0.69;100.00;98727.13;6209989;23;20025;-71
2023/03/07 11:42:25;;;;;;;9.07;3.05;;;;;;;-0.74;100.00;98718.84;6210690;23;20072;-72
2023/03/07 11:44:56;;;;;;;6.00;3.10;;;;;;;-0.81;100.00;98716.88;6210598;23;20016;-71
2023/03/07 11:47:50;;;;;;;6.22;3.17;;;;;;;-0.67;100.00;98712.03;6210061;23;20020;-72
2023/03/07 11:50:30;;;;;;;3.83;2.47;;;;;;;-0.79;100.00;98709.66;6185276;23;20020;-71
2023/03/07 11:53:34;;;;;;;9.05;3.10;;;;;;;-0.86;100.00;98708.56;6199376;23;20063;-72
2023/03/07 11:56:19;;;;;;;4.85;2.58;;;;;;;-0.76;100.00;98709.41;6209564;23;20096;-72
2023/03/07 11:58:48;;;;;;;6.50;2.75;;;;;;;-0.85;100.00;98712.84;6211325;23;20337;-72
2023/03/07 12:01:39;;;;;;;10.68;3.47;;;;;;;-0.76;100.00;98714.66;6211699;23;20029;-72
2023/03/07 12:04:40;;;;;;;5.82;2.63;;;;;;;-0.72;100.00;98716.03;6208726;23;20481;-72
2023/03/07 12:07:28;;;;;;;6.38;2.53;;;;;;;-0.74;100.00;98718.00;6211078;23;20330;-72
2023/03/07 12:10:29;;;;;;;4.82;2.53;;;;;;;-0.81;100.00;98703.72;6210294;23;20017;-72
2023/03/07 12:13:10;;;;;;;10.95;3.47;;;;;;;-0.70;100.00;98711.50;6209004;23;20024;-72
2023/03/07 12:16:10;;;;;;;6.18;1.70;;;;;;;-0.81;100.00;98716.88;6210622;23;20472;-72
2023/03/07 12:19:22;;;;;;;4.50;2.38;;;;;;;-0.85;100.00;98720.75;6210832;23;20079;-72
2023/03/07 12:22:36;;;;;;;6.82;2.75;;;;;;;-0.90;100.00;98708.00;6211717;23;20096;-72
2023/03/07 12:25:11;;;;;;;9.93;1.67;;;;;;;-0.83;100.00;98719.66;6127015;23;20022;-71
2023/03/07 12:27:44;;;;;;;5.53;2.35;;;;;;;-0.84;100.00;98714.53;6209569;23;20335;-72
2023/03/07 12:30:13;;;;;;;3.95;1.73;;;;;;;-0.90;100.00;98711.47;6209533;23;20029;-71
2023/03/07 12:32:40;;;;;;;4.13;1.50;;;;;;;-1.00;100.00;98713.25;6210788;23;20387;-71
2023/03/07 12:35:21;;;;;;;7.38;2.30;;;;;;;-1.03;100.00;98712.69;6210158;23;20512;-71
2023/03/07 12:37:58;;;;;;;8.00;3.88;;;;;;;-0.99;100.00;98714.91;6211546;23;20051;-71
2023/03/07 12:40:32;;;;;;;4.03;1.80;;;;;;;-1.07;100.00;98719.19;6210577;23;20021;-71
2023/03/07 12:43:12;;;;;;;7.10;2.33;;;;;;;-1.12;100.00;98713.50;6210344;23;20407;-71
2023/03/07 12:45:52;;;;;;;4.35;1.50;;;;;;;-1.23;100.00;98723.16;6210324;23;20047;-72
2023/03/07 12:48:41;;;;;;;5.72;2.13;;;;;;;-1.30;100.00;98711.53;6209255;23;20028;-71
2023/03/07 12:51:15;;;;;;;4.82;2.15;;;;;;;-1.36;100.00;98706.78;6209421;23;20027;-71
2023/03/07 12:54:04;;;;;;;5.25;1.60;;;;;;;-1.33;100.00;98713.56;6210152;23;20079;-72
2023/03/07 12:56:54;;;;;;;4.10;1.67;;;;;;;-1.18;100.00;98710.44;6200564;23;20044;-71
2023/03/07 12:59:21;;;;;;;5.72;1.90;;;;;;;-1.15;100.00;98704.91;6200147;23;20501;-71
2023/03/07 13:01:58;;;;;;;4.45;1.70;;;;;;;-1.34;100.00;98704.84;6210576;23;20040;-71
2023/03/07 13:04:35;;;;;;;6.50;1.98;;;;;;;-1.21;100.00;98720.41;6208848;23;20432;-71
2023/03/07 13:07:12;;;;;;;6.70;2.00;;;;;;;-1.27;100.00;98720.91;6209732;23;20028;-71
2023/03/07 13:09:41;;;;;;;5.05;1.88;;;;;;;-1.28;100.00;98724.53;6210219;23;20457;-71
2023/03/07 13:12:22;;;;;;;4.32;2.05;;;;;;;-1.34;100.00;98735.56;6209368;23;20410;-71
2023/03/07 13:14:57;;;;;;;6.35;1.98;;;;;;;-1.29;100.00;98725.50;6209436;23;20044;-71
2023/03/07 13:17:32;;;;;;;5.90;2.03;;;;;;;-1.50;100.00;98728.19;6209605;23;20040;-71
2023/03/07 13:20:27;;;;;;;5.72;2.08;;;;;;;-1.46;100.00;98725.16;6210248;23;20023;-71